Time;durP1;ratioP1;P1;durP2;ratioP2;P2;SDS_P1;SDS_P2;PMS_P1;PMS_P2;Temp;Humidity;BMP_temperature;BMP_pressure;BME280_temperature;BME280_humidity;BME280_pressure;Samples;Min_cycle;Max_cycle;Signal;HPM_P1;HPM_P2
2024/03/31 00:00:50;;;;;;;42.55;23.35;;;;;;;9.94;100.00;99901.78;6142699;23;20101;-69
2024/03/31 00:03:16;;;;;;;40.33;22.70;;;;;;;9.91;100.00;99905.84;6117906;23;20037;-69
2024/03/31 00:05:41;;;;;;;44.45;24.70;;;;;;;9.89;100.00;99902.66;6142697;23;20017;-71
2024/03/31 00:08:07;;;;;;;44.83;24.30;;;;;;;9.86;100.00;99916.59;6141981;23;20472;-68
2024/03/31 00:10:33;;;;;;;45.70;23.75;;;;;;;9.80;100.00;99909.69;6117921;23;20023;-68
2024/03/31 00:12:58;;;;;;;43.10;24.05;;;;;;;9.79;100.00;99916.13;6144580;23;20505;-69
2024/03/31 00:15:24;;;;;;;43.78;24.13;;;;;;;9.76;100.00;99906.03;6142384;23;20014;-69
2024/03/31 00:17:51;;;;;;;42.65;24.95;;;;;;;9.73;100.00;99898.56;6142687;23;20041;-70
2024/03/31 00:20:16;;;;;;;;;;;;;;;9.71;100.00;99890.03;6117520;23;20013;-69
2024/03/31 00:22:42;;;;;;;42.65;25.70;;;;;;;9.66;100.00;99906.91;6141601;23;19916;-70
2024/03/31 00:25:08;;;;;;;47.90;25.98;;;;;;;9.66;100.00;99916.81;6142037;23;20017;-70
2024/03/31 00:27:33;;;;;;;42.38;23.52;;;;;;;9.58;100.00;99915.56;6117954;23;20044;-69
2024/03/31 00:29:59;;;;;;;44.80;25.45;;;;;;;9.52;100.00;99912.13;6141960;23;20352;-71
2024/03/31 00:32:25;;;;;;;50.55;29.42;;;;;;;9.54;100.00;99914.50;6140550;23;20452;-69
2024/03/31 00:34:51;;;;;;;47.13;27.25;;;;;;;9.54;100.00;99917.97;6142811;23;20341;-70
2024/03/31 00:37:16;;;;;;;46.67;29.17;;;;;;;9.52;100.00;99925.50;6116675;23;20068;-69
2024/03/31 00:39:42;;;;;;;42.42;27.55;;;;;;;9.50;100.00;99913.50;6142025;23;20482;-70
2024/03/31 00:42:09;;;;;;;45.67;28.25;;;;;;;9.44;100.00;99915.41;6142223;23;20084;-71
2024/03/31 00:44:35;;;;;;;49.78;33.05;;;;;;;9.39;100.00;99918.13;6118585;23;20028;-71
2024/03/31 00:47:01;;;;;;;47.95;30.80;;;;;;;9.36;100.00;99921.38;6117350;23;20500;-70
2024/03/31 00:49:27;;;;;;;46.65;29.63;;;;;;;9.38;100.00;99929.09;6143278;23;20019;-71
2024/03/31 00:51:52;;;;;;;44.08;28.33;;;;;;;9.35;100.00;99921.63;6142864;23;20013;-70
2024/03/31 00:54:18;;;;;;;50.05;32.95;;;;;;;9.32;100.00;99923.00;6141349;23;20023;-70
2024/03/31 00:56:43;;;;;;;52.45;34.45;;;;;;;9.28;100.00;99919.31;6144204;23;20040;-70
2024/03/31 00:59:09;;;;;;;47.53;30.52;;;;;;;9.28;100.00;99908.63;6116387;23;20017;-71
2024/03/31 01:01:35;;;;;;;47.88;30.83;;;;;;;9.26;100.00;99902.75;6141731;23;20070;-71
2024/03/31 01:04:00;;;;;;;48.28;28.70;;;;;;;9.22;100.00;99901.75;6144005;23;20009;-70
2024/03/31 01:06:27;;;;;;;50.58;32.90;;;;;;;9.18;100.00;99911.38;6140786;23;20013;-70
2024/03/31 01:08:54;;;;;;;44.97;28.48;;;;;;;9.21;100.00;99918.81;6116281;23;20017;-69
2024/03/31 01:11:20;;;;;;;40.83;26.60;;;;;;;9.24;100.00;99915.59;6142101;23;20047;-68
2024/03/31 01:13:50;;;;;;;40.22;25.50;;;;;;;9.23;100.00;99919.34;6117818;23;20016;-70
2024/03/31 01:16:15;;;;;;;40.22;29.30;;;;;;;9.22;100.00;99923.09;6141305;23;20021;-69
2024/03/31 01:18:42;;;;;;;45.72;30.80;;;;;;;9.18;100.00;99924.72;6116751;23;20097;-70
2024/03/31 01:21:10;;;;;;;40.42;26.05;;;;;;;9.15;100.00;99925.31;6116936;23;20456;-71
2024/03/31 01:23:43;;;;;;;40.63;25.50;;;;;;;9.13;100.00;99930.91;6140643;23;20040;-70
2024/03/31 01:26:09;;;;;;;37.22;25.75;;;;;;;9.10;100.00;99936.81;6115703;23;20743;-70
2024/03/31 01:28:34;;;;;;;32.92;23.50;;;;;;;9.09;100.00;99937.91;6141040;23;20052;-70
2024/03/31 01:31:00;;;;;;;31.08;21.27;;;;;;;9.07;100.00;99940.03;6116836;23;20009;-71
2024/03/31 01:33:26;;;;;;;33.13;20.45;;;;;;;9.07;100.00;99920.53;6116101;23;20325;-71
2024/03/31 01:35:52;;;;;;;;;;;;;;;9.03;100.00;99917.66;6143515;23;20013;-71
2024/03/31 01:38:18;;;;;;;24.40;17.80;;;;;;;8.99;100.00;99917.41;6117100;23;19919;-71
2024/03/31 01:40:43;;;;;;;25.02;16.48;;;;;;;8.97;100.00;99927.56;6142378;23;20383;-70
2024/03/31 01:43:09;;;;;;;27.92;15.40;;;;;;;8.94;100.00;99932.66;6141768;23;20053;-71
2024/03/31 01:45:35;;;;;;;23.67;15.35;;;;;;;8.90;100.00;99932.41;6115469;23;20353;-70
2024/03/31 01:48:01;;;;;;;22.13;14.43;;;;;;;8.89;100.00;99938.03;6116593;23;20041;-70
2024/03/31 01:50:28;;;;;;;23.38;14.75;;;;;;;8.87;100.00;99937.50;6140246;23;20363;-69
2024/03/31 01:52:54;;;;;;;22.17;14.23;;;;;;;8.85;100.00;99939.66;6141142;23;20064;-70
2024/03/31 01:55:19;;;;;;;22.88;15.77;;;;;;;8.82;100.00;99943.69;6116458;23;20017;-69
2024/03/31 01:57:45;;;;;;;21.98;14.18;;;;;;;8.78;100.00;99939.19;6141896;23;20009;-70
2024/03/31 02:00:12;;;;;;;24.38;16.10;;;;;;;8.74;100.00;99936.28;6116384;23;20092;-70
2024/03/31 02:02:45;;;;;;;22.65;14.25;;;;;;;8.71;100.00;99942.16;6118533;23;20076;-70
2024/03/31 02:05:11;;;;;;;20.65;12.75;;;;;;;8.63;100.00;99945.41;6116351;23;20018;-70
2024/03/31 02:07:37;;;;;;;24.58;15.10;;;;;;;8.59;100.00;99944.34;6140115;23;20538;-70
2024/03/31 02:10:04;;;;;;;20.02;13.43;;;;;;;8.58;100.00;99945.44;6141550;23;20010;-70
2024/03/31 02:12:29;;;;;;;20.27;12.65;;;;;;;8.54;100.00;99939.06;6141184;23;20059;-69
2024/03/31 02:14:55;;;;;;;21.92;13.43;;;;;;;8.50;100.00;99928.13;6140543;23;20025;-70
2024/03/31 02:17:20;;;;;;;21.42;12.32;;;;;;;8.47;100.00;99934.03;6140137;23;20046;-70
2024/03/31 02:19:47;;;;;;;16.73;11.55;;;;;;;8.43;100.00;99933.78;6094422;23;20045;-70
2024/03/31 02:22:15;;;;;;;;;;;;;;;8.35;100.00;99931.69;6118080;23;21023;-70
2024/03/31 02:24:41;;;;;;;17.67;11.00;;;;;;;8.28;100.00;99920.47;6116427;23;20401;-70
2024/03/31 02:27:07;;;;;;;19.98;12.55;;;;;;;8.24;100.00;99924.75;6165784;23;20108;-70
2024/03/31 02:29:32;;;;;;;21.52;13.63;;;;;;;8.21;100.00;99930.66;6117704;23;20097;-71
2024/03/31 02:31:58;;;;;;;22.58;12.27;;;;;;;8.20;100.00;99934.41;6143360;23;20169;-70
2024/03/31 02:34:24;;;;;;;17.40;11.93;;;;;;;8.20;100.00;99934.41;6142520;23;20357;-70
2024/03/31 02:36:50;;;;;;;19.65;12.43;;;;;;;8.17;100.00;99940.25;6119291;23;20036;-69
2024/03/31 02:39:16;;;;;;;18.88;12.45;;;;;;;8.15;100.00;99937.88;6141555;23;20013;-70
2024/03/31 02:41:42;;;;;;;17.42;10.75;;;;;;;8.14;100.00;99943.47;6119084;23;20088;-68
2024/03/31 02:44:08;;;;;;;18.33;12.23;;;;;;;8.13;100.00;99939.22;6142800;23;20047;-69
2024/03/31 02:46:34;;;;;;;19.30;12.73;;;;;;;8.06;100.00;99933.34;6118324;23;20068;-69
2024/03/31 02:49:00;;;;;;;21.70;13.07;;;;;;;8.01;100.00;99931.53;6093218;23;20017;-70
2024/03/31 02:51:25;;;;;;;20.08;11.80;;;;;;;8.00;100.00;99934.47;6142571;23;20013;-70
2024/03/31 02:53:51;;;;;;;17.70;12.85;;;;;;;7.98;100.00;99936.59;6117735;23;20096;-70
2024/03/31 02:56:17;;;;;;;;;;;;;;;7.99;100.00;99938.97;6142059;23;20013;-69
2024/03/31 02:58:43;;;;;;;17.10;10.38;;;;;;;7.97;100.00;99937.66;6118198;23;19920;-70
2024/03/31 03:01:09;;;;;;;15.75;10.02;;;;;;;7.94;100.00;99944.34;6117415;23;20517;-70
2024/03/31 03:03:35;;;;;;;17.58;11.23;;;;;;;7.92;100.00;99947.28;6093156;23;20017;-70
2024/03/31 03:06:01;;;;;;;20.65;11.90;;;;;;;7.85;100.00;99960.06;6117726;23;20117;-70
2024/03/31 03:08:27;;;;;;;21.35;11.77;;;;;;;7.85;100.00;99962.75;6117034;23;20021;-69
2024/03/31 03:10:54;;;;;;;19.30;11.27;;;;;;;7.83;100.00;99962.22;6117645;23;20092;-69
2024/03/31 03:13:21;;;;;;;22.50;11.35;;;;;;;7.82;100.00;99973.16;6141444;23;20033;-68
2024/03/31 03:15:47;;;;;;;21.73;11.80;;;;;;;7.78;100.00;99964.09;6092654;23;20421;-69
2024/03/31 03:18:17;;;;;;;24.67;11.38;;;;;;;7.77;100.00;99965.97;6144295;23;20456;-69
2024/03/31 03:20:47;;;;;;;21.85;13.38;;;;;;;7.75;100.00;99960.13;6093749;23;20017;-69
2024/03/31 03:23:13;;;;;;;19.60;12.95;;;;;;;7.74;100.00;99960.38;6116937;23;20017;-70
2024/03/31 03:25:39;;;;;;;20.52;12.70;;;;;;;7.74;100.00;99957.72;6141656;23;20020;-69
2024/03/31 03:28:05;;;;;;;21.60;12.27;;;;;;;7.72;100.00;99947.31;6142608;23;20009;-69
2024/03/31 03:30:36;;;;;;;25.23;13.07;;;;;;;7.71;100.00;99948.38;6141106;23;20021;-69
2024/03/31 03:33:02;;;;;;;22.42;13.23;;;;;;;7.68;100.00;99938.28;6143114;23;20021;-70
2024/03/31 03:35:30;;;;;;;20.27;13.52;;;;;;;7.68;100.00;99932.16;6142792;23;20032;-70
2024/03/31 03:37:58;;;;;;;20.73;12.40;;;;;;;7.65;100.00;99931.63;6142612;23;20068;-70
2024/03/31 03:40:24;;;;;;;23.35;12.73;;;;;;;7.66;100.00;99941.22;6116504;23;20014;-69
2024/03/31 03:42:49;;;;;;;20.50;12.02;;;;;;;7.69;100.00;99929.22;6117296;23;20100;-69
2024/03/31 03:45:15;;;;;;;23.73;12.95;;;;;;;7.70;100.00;99922.00;6142033;23;20013;-69
2024/03/31 03:47:41;;;;;;;21.80;12.65;;;;;;;7.73;100.00;99934.81;6116955;23;20013;-69
2024/03/31 03:50:07;;;;;;;19.73;11.50;;;;;;;7.75;100.00;99932.66;6144202;23;20025;-70
2024/03/31 03:52:37;;;;;;;22.20;12.07;;;;;;;7.74;100.00;99926.53;6119982;23;20009;-70
2024/03/31 03:55:03;;;;;;;21.88;12.10;;;;;;;7.77;100.00;99930.50;6146105;23;20097;-70
2024/03/31 03:57:29;;;;;;;;;;;;;;;7.79;100.00;99939.84;6119921;23;20040;-70
2024/03/31 03:59:54;;;;;;;18.60;10.95;;;;;;;7.80;100.00;99930.78;6144649;23;19909;-70
2024/03/31 04:02:19;;;;;;;20.65;11.07;;;;;;;7.83;100.00;99935.56;6117999;23;20014;-70
2024/03/31 04:04:45;;;;;;;20.27;12.35;;;;;;;7.83;100.00;99940.91;6119049;23;20586;-70
2024/03/31 04:07:11;;;;;;;20.80;10.75;;;;;;;7.84;100.00;99942.50;6141218;23;20024;-69
2024/03/31 04:09:36;;;;;;;19.45;11.07;;;;;;;7.87;100.00;99939.31;6118594;23;20104;-71
2024/03/31 04:12:02;;;;;;;17.15;10.40;;;;;;;7.88;100.00;99932.91;6142971;23;20010;-70
2024/03/31 04:14:28;;;;;;;17.65;11.85;;;;;;;7.88;100.00;99932.91;6142553;23;20039;-70
2024/03/31 04:16:54;;;;;;;19.65;12.65;;;;;;;7.88;100.00;99932.91;6117077;23;20060;-69
2024/03/31 04:19:20;;;;;;;18.58;11.30;;;;;;;7.91;100.00;99937.66;6117837;23;20013;-69
2024/03/31 04:21:45;;;;;;;19.70;11.65;;;;;;;7.92;100.00;99936.63;6142428;23;20013;-70
2024/03/31 04:24:11;;;;;;;21.50;11.50;;;;;;;7.96;100.00;99950.19;6117801;23;20054;-70
2024/03/31 04:26:37;;;;;;;17.20;10.98;;;;;;;7.96;100.00;99949.41;6092862;23;20397;-70
2024/03/31 04:29:03;;;;;;;18.70;11.38;;;;;;;7.98;100.00;99953.38;6143766;23;20014;-70
2024/03/31 04:31:28;;;;;;;18.08;10.95;;;;;;;7.99;100.00;99960.31;6118448;23;20013;-70
2024/03/31 04:33:54;;;;;;;19.23;11.70;;;;;;;8.02;100.00;99972.31;6142566;23;20051;-70
2024/03/31 04:36:20;;;;;;;19.17;11.07;;;;;;;8.04;100.00;99972.84;6118359;23;20036;-72
2024/03/31 04:38:45;;;;;;;21.20;13.60;;;;;;;8.04;100.00;99983.50;6141824;23;20108;-71
2024/03/31 04:41:11;;;;;;;20.88;12.55;;;;;;;8.07;100.00;99972.31;6118243;23;20152;-71
2024/03/31 04:43:37;;;;;;;18.98;11.90;;;;;;;8.08;100.00;99979.25;6142458;23;20028;-71
2024/03/31 04:46:06;;;;;;;27.13;13.27;;;;;;;8.07;100.00;99975.78;6141508;23;20392;-71
2024/03/31 04:48:37;;;;;;;22.02;13.57;;;;;;;8.09;100.00;99991.50;6141989;23;20668;-70
2024/03/31 04:51:07;;;;;;;21.88;13.30;;;;;;;8.10;100.00;99993.09;6142452;23;20010;-70
2024/03/31 04:53:34;;;;;;;19.30;11.27;;;;;;;8.13;100.00;99987.22;6117586;23;20014;-71
2024/03/31 04:56:03;;;;;;;22.00;12.23;;;;;;;8.12;100.00;99980.28;6142430;23;20021;-70
2024/03/31 04:58:29;;;;;;;21.80;12.82;;;;;;;8.14;100.00;99994.16;6141751;23;20025;-70
2024/03/31 05:00:55;;;;;;;;;;;;;;;8.15;100.00;99991.22;6142750;23;20013;-70
2024/03/31 05:03:22;;;;;;;21.52;11.60;;;;;;;8.17;100.00;100001.59;6118038;23;19982;-70
2024/03/31 05:05:48;;;;;;;23.38;12.13;;;;;;;8.16;100.00;99986.69;6141303;23;20558;-70
2024/03/31 05:08:14;;;;;;;23.70;14.45;;;;;;;8.15;100.00;99996.53;6142750;23;20088;-71
2024/03/31 05:10:39;;;;;;;20.05;13.77;;;;;;;8.15;100.00;100004.53;6117560;23;20013;-70
2024/03/31 05:13:05;;;;;;;23.35;14.00;;;;;;;8.15;100.00;100007.22;6092675;23;20014;-70
2024/03/31 05:15:31;;;;;;;22.52;13.15;;;;;;;8.17;100.00;100005.06;6142334;23;20410;-70
2024/03/31 05:17:56;;;;;;;22.85;13.80;;;;;;;8.17;100.00;100004.28;6143872;23;20508;-70
2024/03/31 05:20:22;;;;;;;23.13;13.85;;;;;;;8.16;100.00;100006.13;6117223;23;20013;-70
2024/03/31 05:22:48;;;;;;;25.85;16.17;;;;;;;8.16;100.00;100002.69;6142055;23;20093;-70
2024/03/31 05:25:14;;;;;;;;;;;;;;;8.13;100.00;99995.22;6143162;23;20478;-70
2024/03/31 05:27:40;;;;;;;21.40;12.95;;;;;;;8.12;100.00;100001.59;6116589;23;20326;-71
2024/03/31 05:30:06;;;;;;;22.15;12.70;;;;;;;8.12;100.00;100007.75;6092915;23;20048;-70
2024/03/31 05:32:32;;;;;;;19.50;12.93;;;;;;;8.13;100.00;100004.03;6116598;23;20643;-69
2024/03/31 05:35:29;;;;;;;26.95;16.05;;;;;;;8.12;100.00;99997.06;6093040;23;20017;-69
2024/03/31 05:37:55;;;;;;;27.52;16.80;;;;;;;8.13;100.00;100004.03;6143312;23;20024;-69
2024/03/31 05:40:21;;;;;;;24.85;13.48;;;;;;;8.15;100.00;100001.09;6117705;23;20014;-70
2024/03/31 05:42:47;;;;;;;24.73;14.93;;;;;;;8.16;100.00;100002.69;6141953;23;20024;-69
2024/03/31 05:45:13;;;;;;;26.20;16.38;;;;;;;8.16;100.00;100008.00;6140709;23;20024;-70
2024/03/31 05:47:39;;;;;;;24.90;15.63;;;;;;;8.16;100.00;100010.69;6116672;23;20014;-70
2024/03/31 05:50:06;;;;;;;23.27;15.10;;;;;;;8.17;100.00;100010.41;6143264;23;20104;-70
2024/03/31 05:52:32;;;;;;;20.67;13.73;;;;;;;8.22;100.00;100017.59;6116701;23;20006;-70
2024/03/31 05:54:58;;;;;;;21.02;13.75;;;;;;;8.24;100.00;100025.31;6143631;23;20028;-70
2024/03/31 05:57:24;;;;;;;21.48;13.45;;;;;;;8.26;100.00;100015.97;6117724;23;20014;-70
2024/03/31 05:59:49;;;;;;;23.15;14.75;;;;;;;8.28;100.00;100026.38;6115330;23;20049;-70
2024/03/31 06:02:15;;;;;;;24.67;14.45;;;;;;;8.29;100.00;100028.78;6142513;23;20045;-70
2024/03/31 06:04:41;;;;;;;20.13;12.80;;;;;;;8.32;100.00;100030.88;6142116;23;20084;-69
2024/03/31 06:07:06;;;;;;;21.92;13.77;;;;;;;8.34;100.00;100022.63;6141598;23;20745;-70
2024/03/31 06:09:32;;;;;;;20.15;12.65;;;;;;;8.34;100.00;100028.78;6141388;23;20017;-69
2024/03/31 06:11:58;;;;;;;19.05;12.60;;;;;;;8.37;100.00;100038.13;6117890;23;20459;-69
2024/03/31 06:14:23;;;;;;;19.85;11.73;;;;;;;8.40;100.00;100027.72;6141314;23;20766;-69
2024/03/31 06:16:49;;;;;;;19.42;11.50;;;;;;;8.40;100.00;100025.06;6092327;23;20041;-69
2024/03/31 06:19:15;;;;;;;18.63;12.77;;;;;;;8.40;100.00;100040.22;6116567;23;20599;-70
2024/03/31 06:21:41;;;;;;;;;;;;;;;8.43;100.00;100026.38;6116639;23;20014;-70
2024/03/31 06:24:07;;;;;;;16.45;10.23;;;;;;;8.43;100.00;100032.50;6116790;23;19943;-70
2024/03/31 06:26:36;;;;;;;19.60;11.82;;;;;;;8.46;100.00;100034.59;6141114;23;20013;-70
2024/03/31 06:29:03;;;;;;;17.25;11.20;;;;;;;8.47;100.00;100038.09;6140308;23;20526;-71
2024/03/31 06:31:29;;;;;;;16.25;10.23;;;;;;;8.46;100.00;100033.81;6142213;23;20436;-70
2024/03/31 06:33:59;;;;;;;15.30;10.32;;;;;;;8.46;100.00;100039.16;6142009;23;20005;-70
2024/03/31 06:36:25;;;;;;;15.85;10.13;;;;;;;8.47;100.00;100035.44;6141999;23;20010;-70
2024/03/31 06:38:51;;;;;;;17.30;11.00;;;;;;;8.48;100.00;100027.16;6116800;23;20108;-71
2024/03/31 06:41:19;;;;;;;13.52;9.30;;;;;;;8.49;100.00;100027.94;6141156;23;20021;-70
2024/03/31 06:43:45;;;;;;;18.08;11.25;;;;;;;8.48;100.00;100024.47;6140002;23;20049;-70
2024/03/31 06:46:11;;;;;;;15.60;10.18;;;;;;;8.51;100.00;100023.13;6139090;23;20048;-71
2024/03/31 06:48:38;;;;;;;15.55;10.30;;;;;;;8.53;100.00;100018.31;6091699;23;20028;-71
2024/03/31 06:51:04;;;;;;;14.45;9.98;;;;;;;8.55;100.00;100018.06;6116515;23;20017;-71
2024/03/31 06:53:29;;;;;;;13.43;9.18;;;;;;;8.54;100.00;100024.47;6117415;23;20033;-71
2024/03/31 06:55:55;;;;;;;13.68;9.68;;;;;;;8.58;100.00;100017.50;6140695;23;20047;-71
2024/03/31 06:58:21;;;;;;;15.05;10.63;;;;;;;8.56;100.00;100017.78;6116764;23;20017;-71
2024/03/31 07:00:47;;;;;;;16.55;11.35;;;;;;;8.58;100.00;100026.28;6116362;23;20017;-71
2024/03/31 07:03:13;;;;;;;15.43;9.50;;;;;;;8.59;100.00;100025.22;6142818;23;20022;-73
2024/03/31 07:05:38;;;;;;;18.13;12.40;;;;;;;8.59;100.00;100037.78;6118127;23;20068;-72
2024/03/31 07:08:04;;;;;;;16.98;12.15;;;;;;;8.59;100.00;100037.78;6142333;23;20156;-72
2024/03/31 07:10:30;;;;;;;14.20;9.93;;;;;;;8.59;100.00;100043.09;6142812;23;20009;-72
2024/03/31 07:12:56;;;;;;;17.63;11.10;;;;;;;8.56;100.00;100039.13;6093480;23;20013;-71
2024/03/31 07:15:22;;;;;;;16.30;11.05;;;;;;;8.57;100.00;100037.25;6118573;23;20018;-71
2024/03/31 07:17:48;;;;;;;19.65;12.88;;;;;;;8.61;100.00;100043.66;6118323;23;20025;-70
2024/03/31 07:20:14;;;;;;;19.65;12.60;;;;;;;8.61;100.00;100040.97;6118452;23;20044;-70
2024/03/31 07:22:40;;;;;;;18.88;12.52;;;;;;;8.62;100.00;100039.91;6143763;23;20139;-69
2024/03/31 07:25:06;;;;;;;17.48;12.55;;;;;;;8.60;100.00;100034.03;6144175;23;20017;-72
2024/03/31 07:27:31;;;;;;;16.75;11.70;;;;;;;8.60;100.00;100026.84;6118553;23;20084;-69
2024/03/31 07:29:57;;;;;;;17.38;11.57;;;;;;;8.61;100.00;100015.09;6142751;23;20010;-72
2024/03/31 07:32:23;;;;;;;18.20;13.02;;;;;;;8.61;100.00;100004.41;6142027;23;20009;-70
2024/03/31 07:34:48;;;;;;;15.68;11.32;;;;;;;8.60;100.00;99994.00;6142546;23;20017;-70
2024/03/31 07:37:14;;;;;;;19.60;11.68;;;;;;;8.59;100.00;99989.72;6142498;23;20821;-70
2024/03/31 07:39:39;;;;;;;22.40;14.25;;;;;;;8.59;100.00;99981.72;6140905;23;20549;-69
2024/03/31 07:42:05;;;;;;;19.92;13.15;;;;;;;8.56;100.00;99979.63;6118001;23;20020;-71
2024/03/31 07:44:31;;;;;;;18.92;12.35;;;;;;;8.56;100.00;99969.72;6118985;23;20017;-71
2024/03/31 07:46:56;;;;;;;21.48;13.25;;;;;;;8.54;100.00;99965.75;6171461;23;20150;-71
2024/03/31 07:49:22;;;;;;;17.67;10.75;;;;;;;8.58;100.00;99966.78;6173647;23;20383;-71
2024/03/31 07:51:48;;;;;;;19.25;11.82;;;;;;;8.60;100.00;99957.44;6173837;23;20021;-71
2024/03/31 07:54:13;;;;;;;17.17;11.13;;;;;;;8.61;100.00;99956.38;6122412;23;20021;-71
2024/03/31 07:56:40;;;;;;;17.60;11.18;;;;;;;8.61;100.00;99950.25;6145656;23;20023;-71
2024/03/31 07:59:07;;;;;;;16.27;12.00;;;;;;;8.59;100.00;99952.38;6147867;23;20128;-71
2024/03/31 08:01:33;;;;;;;14.52;10.10;;;;;;;8.59;100.00;99944.34;6123870;23;20049;-70
2024/03/31 08:03:59;;;;;;;16.23;10.48;;;;;;;8.62;100.00;99957.16;6146999;23;20486;-72
2024/03/31 08:06:24;;;;;;;15.00;9.85;;;;;;;8.62;100.00;99962.50;6173932;23;20075;-69
2024/03/31 08:08:50;;;;;;;14.75;10.02;;;;;;;8.63;100.00;99964.09;6146149;23;20459;-70
2024/03/31 08:11:15;;;;;;;16.88;11.35;;;;;;;8.66;100.00;99974.22;6173950;23;20013;-70
2024/03/31 08:13:41;;;;;;;14.65;10.85;;;;;;;8.66;100.00;99984.88;6147106;23;20090;-70
2024/03/31 08:16:06;;;;;;;12.88;9.77;;;;;;;8.69;100.00;99987.03;6172883;23;20025;-71
2024/03/31 08:18:32;;;;;;;12.43;9.25;;;;;;;8.71;100.00;99983.00;6173964;23;20016;-69
2024/03/31 08:20:58;;;;;;;11.90;9.60;;;;;;;8.74;100.00;99979.78;6147648;23;20096;-71
2024/03/31 08:23:23;;;;;;;13.20;9.30;;;;;;;8.74;100.00;99979.78;6172815;23;20013;-70
2024/03/31 08:25:51;;;;;;;14.30;10.02;;;;;;;8.74;100.00;99973.66;6173014;23;20013;-70
2024/03/31 08:28:16;;;;;;;13.98;9.55;;;;;;;8.71;100.00;99968.84;6147066;23;20021;-70
2024/03/31 08:30:42;;;;;;;15.60;9.73;;;;;;;8.72;100.00;99973.91;6146537;23;20390;-70
2024/03/31 08:33:07;;;;;;;13.57;9.77;;;;;;;8.78;100.00;99977.34;6147151;23;20100;-69
2024/03/31 08:35:33;;;;;;;;;;;;;;;8.80;100.00;99969.84;6174580;23;20083;-70
2024/03/31 08:37:59;;;;;;;12.50;8.25;;;;;;;8.79;100.00;99973.59;6121589;23;19916;-71
2024/03/31 08:40:30;;;;;;;12.50;9.43;;;;;;;8.80;100.00;99964.50;6173093;23;20016;-71
2024/03/31 08:43:06;;;;;;;15.18;10.38;;;;;;;8.80;100.00;99964.50;6146906;23;20045;-70
2024/03/31 08:45:34;;;;;;;15.23;10.73;;;;;;;8.79;100.00;99957.59;6146543;23;20028;-70
2024/03/31 08:48:00;;;;;;;13.98;10.23;;;;;;;8.80;100.00;99969.84;6172802;23;20084;-71
2024/03/31 08:50:26;;;;;;;14.40;9.88;;;;;;;8.81;100.00;99987.50;6173277;23;20013;-70
2024/03/31 08:52:53;;;;;;;14.23;10.32;;;;;;;8.80;100.00;99999.22;6098572;23;20017;-70
2024/03/31 08:55:19;;;;;;;14.60;9.95;;;;;;;8.81;100.00;100014.19;6099191;23;20394;-70
2024/03/31 08:57:45;;;;;;;12.95;10.18;;;;;;;8.75;100.00;100021.44;6147989;23;20013;-71
2024/03/31 09:00:11;;;;;;;12.90;9.05;;;;;;;8.78;100.00;100036.09;6148392;23;20012;-71
2024/03/31 09:02:40;;;;;;;11.38;8.68;;;;;;;8.85;100.00;100051.81;6123681;23;20044;-70
2024/03/31 09:05:07;;;;;;;12.27;8.13;;;;;;;8.87;100.00;100047.78;6147913;23;20120;-72
2024/03/31 09:07:34;;;;;;;14.25;9.43;;;;;;;8.87;100.00;100055.78;6123726;23;20020;-70
2024/03/31 09:10:05;;;;;;;12.00;9.27;;;;;;;8.87;100.00;100066.47;6123637;23;20028;-70
2024/03/31 09:12:31;;;;;;;14.10;9.55;;;;;;;8.90;100.00;100065.13;6148683;23;20070;-69
2024/03/31 09:14:57;;;;;;;12.00;9.40;;;;;;;8.91;100.00;100066.72;6174931;23;20016;-70
2024/03/31 09:17:23;;;;;;;11.90;7.90;;;;;;;8.96;100.00;100064.84;6148602;23;20060;-70
2024/03/31 09:19:49;;;;;;;13.13;9.48;;;;;;;8.97;100.00;100069.09;6122668;23;20459;-71
2024/03/31 09:22:15;;;;;;;13.32;10.18;;;;;;;8.96;100.00;100062.16;6123766;23;20013;-70
2024/03/31 09:24:44;;;;;;;14.15;9.73;;;;;;;8.99;100.00;100068.81;6124204;23;20657;-71
2024/03/31 09:27:10;;;;;;;13.50;9.75;;;;;;;9.00;100.00;100076.56;6148208;23;20084;-71
2024/03/31 09:29:40;;;;;;;;;;;;;;;8.98;100.00;100068.03;6149882;23;20033;-70
2024/03/31 09:32:09;;;;;;;12.25;8.43;;;;;;;9.02;100.00;100063.75;6173838;23;19918;-70
2024/03/31 09:34:35;;;;;;;12.43;9.00;;;;;;;9.03;100.00;100078.69;6174925;23;20481;-69
2024/03/31 09:37:01;;;;;;;12.40;9.40;;;;;;;9.06;100.00;100069.31;6148333;23;20013;-70
2024/03/31 09:39:27;;;;;;;15.75;9.60;;;;;;;9.05;100.00;100066.94;6122832;23;20356;-70
2024/03/31 09:41:56;;;;;;;12.63;9.25;;;;;;;9.08;100.00;100061.84;6148701;23;20067;-70
2024/03/31 09:44:22;;;;;;;15.90;10.68;;;;;;;9.13;100.00;100063.66;6123112;23;20809;-70
2024/03/31 09:46:48;;;;;;;14.70;10.25;;;;;;;9.18;100.00;100066.31;6174072;23;20015;-70
2024/03/31 09:49:27;;;;;;;13.43;10.07;;;;;;;9.16;100.00;100063.94;6147404;23;20095;-70
2024/03/31 09:51:55;;;;;;;14.35;9.57;;;;;;;9.19;100.00;100049.22;6148149;23;20539;-70
2024/03/31 09:54:33;;;;;;;14.65;10.25;;;;;;;9.23;100.00;100066.28;6122765;23;20031;-70
2024/03/31 09:57:07;;;;;;;16.70;11.52;;;;;;;9.19;100.00;100047.34;6122971;23;20051;-71
2024/03/31 09:59:40;;;;;;;18.63;11.60;;;;;;;9.20;100.00;100056.16;6174099;23;20066;-71
2024/03/31 10:02:08;;;;;;;16.13;11.88;;;;;;;9.18;100.00;100060.97;6122359;23;20603;-69
2024/03/31 10:04:53;;;;;;;18.00;11.77;;;;;;;9.21;100.00;100052.41;6174824;23;20036;-70
2024/03/31 10:07:20;;;;;;;19.83;13.45;;;;;;;9.18;100.00;100055.63;6148004;23;20023;-71
2024/03/31 10:09:47;;;;;;;19.60;13.02;;;;;;;9.16;100.00;100053.25;6147460;23;20069;-70
2024/03/31 10:12:14;;;;;;;20.08;12.48;;;;;;;9.16;100.00;100061.25;6148871;23;20013;-71
2024/03/31 10:14:41;;;;;;;16.95;11.70;;;;;;;9.16;100.00;100079.97;6175821;23;20187;-71
2024/03/31 10:17:09;;;;;;;19.90;13.95;;;;;;;9.18;100.00;100077.00;6119921;23;20079;-71
2024/03/31 10:19:36;;;;;;;21.35;15.65;;;;;;;9.16;100.00;100079.16;6122393;23;20040;-72
2024/03/31 10:22:02;;;;;;;23.48;15.20;;;;;;;9.17;100.00;100080.75;6148137;23;20116;-71
2024/03/31 10:24:30;;;;;;;30.98;20.50;;;;;;;9.15;100.00;100082.91;6123147;23;20021;-71
2024/03/31 10:26:58;;;;;;;23.33;14.38;;;;;;;9.12;100.00;100084.25;6174228;23;20035;-71
2024/03/31 10:29:25;;;;;;;21.15;14.82;;;;;;;9.13;100.00;100085.03;6123077;23;20012;-70
2024/03/31 10:31:50;;;;;;;29.33;18.45;;;;;;;9.13;100.00;100069.81;6148287;23;20040;-70
2024/03/31 10:34:16;;;;;;;24.02;15.93;;;;;;;9.17;100.00;100070.06;6147845;23;20013;-71
2024/03/31 10:36:44;;;;;;;;;;;;;;;9.23;100.00;100075.09;6175429;23;20443;-70
2024/03/31 10:39:10;;;;;;;23.95;15.60;;;;;;;9.26;100.00;100069.19;6174231;23;20044;-71
2024/03/31 10:41:36;;;;;;;28.80;19.02;;;;;;;9.32;100.00;100059.28;6151264;23;20021;-70
2024/03/31 10:44:02;;;;;;;30.27;20.15;;;;;;;9.38;100.00;100052.03;6148685;23;20009;-70
2024/03/31 10:46:28;;;;;;;31.55;20.73;;;;;;;9.37;100.00;100053.91;6125930;23;20017;-70
2024/03/31 10:49:00;;;;;;;31.25;19.13;;;;;;;9.44;100.00;100046.38;6124599;23;20032;-71
2024/03/31 10:51:27;;;;;;;31.70;19.63;;;;;;;9.47;100.00;100051.16;6150380;23;20075;-71
2024/03/31 10:53:53;;;;;;;33.25;22.42;;;;;;;9.50;100.00;100042.59;6148892;23;20020;-72
2024/03/31 10:56:26;;;;;;;;;;;;;;;9.55;100.00;100034.53;6149758;23;20032;-71
2024/03/31 10:58:52;;;;;;;31.35;19.00;;;;;;;9.57;100.00;100037.72;6124673;23;19934;-72
2024/03/31 11:01:19;;;;;;;35.30;21.67;;;;;;;9.62;100.00;100036.06;6100068;23;20451;-71
2024/03/31 11:03:46;;;;;;;28.27;19.05;;;;;;;9.67;100.00;100033.34;6174701;23;20052;-71
2024/03/31 11:06:14;;;;;;;29.33;18.52;;;;;;;9.69;100.00;100034.69;6149387;23;20025;-71
2024/03/31 11:08:42;;;;;;;30.15;20.00;;;;;;;9.78;100.00;100030.31;6149733;23;20012;-70
2024/03/31 11:11:09;;;;;;;30.00;20.30;;;;;;;9.82;100.00;100022.53;6149496;23;20091;-70
2024/03/31 11:13:35;;;;;;;29.58;19.98;;;;;;;9.88;100.00;100026.75;6149584;23;20013;-70
2024/03/31 11:16:04;;;;;;;28.73;19.55;;;;;;;9.90;100.00;100023.81;6148913;23;20773;-70